createdAt,value
2017-09-12T00:00:38.188Z,0.00
2017-09-12T00:01:32.505Z,0.00
2017-09-12T00:02:26.823Z,0.00
2017-09-12T00:03:28.036Z,0.00
2017-09-12T00:04:16.824Z,0.00
2017-09-12T00:05:12.312Z,0.00
2017-09-12T00:06:12.467Z,0.00
2017-09-12T00:07:01.544Z,0.00
2017-09-12T00:07:55.086Z,0.00
2017-09-12T00:08:50.339Z,0.00
2017-09-12T00:09:44.137Z,0.00
2017-09-12T00:10:38.279Z,0.00
2017-09-12T00:11:32.664Z,0.00
2017-09-12T00:12:27.664Z,0.00
2017-09-12T00:13:27.355Z,0.00
2017-09-12T00:14:22.302Z,0.00
2017-09-12T00:15:16.657Z,0.00
2017-09-12T00:16:16.479Z,0.00
2017-09-12T00:17:04.990Z,0.00
2017-09-12T00:18:05.683Z,0.00
2017-09-12T00:18:54.559Z,0.00
2017-09-12T00:19:49.564Z,0.00
2017-09-12T00:20:37.809Z,0.00
2017-09-12T00:21:26.433Z,0.00
2017-09-12T00:22:19.866Z,0.00
2017-09-12T00:23:08.953Z,0.00
2017-09-12T00:24:02.909Z,0.00
2017-09-12T00:24:57.880Z,0.00
2017-09-12T00:25:57.746Z,0.00
2017-09-12T00:26:52.889Z,0.00
2017-09-12T00:27:47.592Z,0.00
2017-09-12T00:28:41.995Z,0.00
2017-09-12T00:29:30.578Z,0.00
2017-09-12T00:30:25.045Z,0.00
2017-09-12T00:31:26.607Z,0.00
2017-09-12T00:32:20.133Z,0.00
2017-09-12T00:33:09.157Z,0.00
2017-09-12T00:34:04.417Z,0.00
2017-09-12T00:34:58.331Z,0.00
2017-09-12T00:35:52.862Z,0.00
2017-09-12T00:36:47.898Z,0.00
2017-09-12T00:37:41.312Z,0.00
2017-09-12T00:38:36.454Z,0.00
2017-09-12T00:39:31.284Z,0.00
2017-09-12T00:40:20.455Z,0.00
2017-09-12T00:41:08.414Z,0.00
2017-09-12T00:42:08.987Z,0.00
2017-09-12T00:43:03.627Z,0.00
2017-09-12T00:44:03.565Z,0.00
2017-09-12T00:44:58.131Z,0.00
2017-09-12T00:45:52.013Z,0.00
2017-09-12T00:46:46.157Z,0.00
2017-09-12T00:47:40.827Z,0.00
2017-09-12T00:48:35.165Z,0.00
2017-09-12T00:49:23.890Z,0.00
2017-09-12T00:50:17.977Z,0.00
2017-09-12T00:51:12.023Z,0.00
2017-09-12T00:52:06.283Z,0.00
2017-09-12T00:53:01.156Z,0.00
2017-09-12T00:53:54.906Z,0.00
2017-09-12T00:54:55.179Z,0.00
2017-09-12T00:55:50.194Z,0.00
2017-09-12T00:56:44.725Z,0.00
2017-09-12T00:57:39.267Z,0.00
2017-09-12T00:58:34.646Z,0.00
2017-09-12T00:59:28.181Z,0.00
2017-09-12T01:00:22.799Z,0.00
2017-09-12T01:01:17.188Z,0.00
2017-09-12T01:02:11.819Z,0.00
2017-09-12T01:03:05.951Z,0.00
2017-09-12T01:04:00.969Z,0.00
2017-09-12T01:04:55.989Z,0.00
2017-09-12T01:05:44.737Z,0.00
2017-09-12T01:06:33.002Z,0.00
2017-09-12T01:07:28.027Z,0.00
2017-09-12T01:08:22.123Z,0.00
2017-09-12T01:09:10.939Z,0.00
2017-09-12T01:10:11.179Z,0.00
2017-09-12T01:11:04.673Z,0.00
2017-09-12T01:12:05.199Z,0.00
2017-09-12T01:12:59.678Z,0.00
2017-09-12T01:13:54.332Z,0.00
2017-09-12T01:14:48.988Z,0.00
2017-09-12T01:15:42.888Z,0.00
2017-09-12T01:16:43.433Z,0.00
2017-09-12T01:17:36.948Z,0.00
2017-09-12T01:18:31.981Z,0.00
2017-09-12T01:19:20.178Z,0.00
2017-09-12T01:20:20.618Z,0.00
2017-09-12T01:21:15.287Z,0.00
2017-09-12T01:22:04.562Z,0.00
2017-09-12T01:22:59.354Z,0.00
2017-09-12T01:23:53.222Z,0.00
2017-09-12T01:24:48.433Z,0.00
2017-09-12T01:25:42.213Z,0.00
2017-09-12T01:26:37.821Z,0.00
2017-09-12T01:27:38.419Z,0.00
2017-09-12T01:28:38.382Z,0.00
2017-09-12T01:29:33.395Z,0.00
2017-09-12T01:30:28.925Z,0.00
2017-09-12T01:31:23.124Z,0.00
2017-09-12T01:32:16.489Z,0.00
2017-09-12T01:33:12.201Z,0.00
2017-09-12T01:34:00.666Z,0.00
2017-09-12T01:34:54.649Z,0.00
2017-09-12T01:35:48.713Z,0.00
2017-09-12T01:36:42.930Z,0.00
2017-09-12T01:37:42.823Z,0.00
2017-09-12T01:38:37.964Z,0.00
2017-09-12T01:39:37.900Z,0.00
2017-09-12T01:40:32.912Z,0.00
2017-09-12T01:41:33.288Z,0.00
2017-09-12T01:42:26.920Z,0.00
2017-09-12T01:43:26.961Z,0.00
2017-09-12T01:44:21.711Z,0.00
2017-09-12T01:45:15.088Z,0.00
2017-09-12T01:46:09.326Z,0.00
2017-09-12T01:47:03.505Z,0.00
2017-09-12T01:47:52.760Z,0.00
2017-09-12T01:48:47.131Z,0.00
2017-09-12T01:49:42.408Z,0.00
2017-09-12T01:50:42.300Z,0.00
2017-09-12T01:51:31.866Z,0.00
2017-09-12T01:52:21.150Z,0.00
2017-09-12T01:53:15.689Z,0.00
2017-09-12T01:54:03.495Z,0.00
2017-09-12T01:54:57.584Z,0.00
2017-09-12T01:55:57.702Z,0.00
2017-09-12T01:56:57.586Z,0.00
2017-09-12T01:57:51.616Z,0.00
2017-09-12T01:58:47.119Z,0.00
2017-09-12T01:59:46.886Z,0.00
2017-09-12T02:00:40.727Z,0.00
2017-09-12T02:01:40.761Z,0.00
2017-09-12T02:02:34.845Z,0.00
2017-09-12T02:03:28.831Z,0.00
2017-09-12T02:04:22.915Z,0.00
2017-09-12T02:05:12.181Z,0.00
2017-09-12T02:06:06.983Z,0.00
2017-09-12T02:07:01.416Z,0.00
2017-09-12T02:08:01.104Z,0.00
2017-09-12T02:08:55.093Z,0.00
2017-09-12T02:09:55.164Z,0.00
2017-09-12T02:10:50.107Z,0.00
2017-09-12T02:11:51.091Z,0.00
2017-09-12T02:12:44.386Z,0.00
2017-09-12T02:13:45.251Z,0.00
2017-09-12T02:14:33.482Z,0.00
2017-09-12T02:15:33.332Z,0.00
2017-09-12T02:16:22.458Z,0.00
2017-09-12T02:17:16.511Z,0.00
2017-09-12T02:18:17.545Z,0.00
2017-09-12T02:19:11.493Z,0.00
2017-09-12T02:20:05.556Z,0.00
2017-09-12T02:21:00.497Z,0.00
2017-09-12T02:21:54.544Z,0.00
2017-09-12T02:22:48.857Z,0.00
2017-09-12T02:23:48.613Z,0.00
2017-09-12T02:24:42.647Z,0.00
2017-09-12T02:25:36.694Z,0.00
2017-09-12T02:26:30.952Z,0.00
2017-09-12T02:27:25.755Z,0.00
2017-09-12T02:28:20.468Z,0.00
2017-09-12T02:29:13.858Z,0.00
2017-09-12T02:30:09.041Z,0.00
2017-09-12T02:31:08.993Z,0.00
2017-09-12T02:31:58.215Z,0.00
2017-09-12T02:32:58.269Z,0.00
2017-09-12T02:33:46.375Z,0.00
2017-09-12T02:34:34.067Z,0.00
2017-09-12T02:35:28.082Z,0.00
2017-09-12T02:36:17.266Z,0.00
2017-09-12T02:37:11.874Z,0.00
2017-09-12T02:38:05.371Z,0.00
2017-09-12T02:39:05.284Z,0.00
2017-09-12T02:40:00.311Z,0.00
2017-09-12T02:41:00.387Z,0.00
2017-09-12T02:41:55.904Z,0.00
2017-09-12T02:42:55.417Z,0.00
2017-09-12T02:43:49.519Z,0.00
2017-09-12T02:44:50.639Z,0.00
2017-09-12T02:45:45.726Z,0.00
2017-09-12T02:46:45.590Z,0.00
2017-09-12T02:47:39.695Z,0.00
2017-09-12T02:48:28.719Z,0.00
2017-09-12T02:49:28.597Z,0.00
2017-09-12T02:50:28.854Z,0.00
2017-09-12T02:51:22.700Z,0.00
2017-09-12T02:52:17.487Z,0.00
2017-09-12T02:53:10.807Z,0.00
2017-09-12T02:54:06.156Z,0.00
2017-09-12T02:55:00.961Z,0.00
2017-09-12T02:55:49.970Z,0.00
2017-09-12T02:56:45.361Z,0.00
2017-09-12T02:57:40.446Z,0.00
2017-09-12T02:58:29.067Z,0.00
2017-09-12T02:59:23.484Z,0.00
2017-09-12T03:00:18.707Z,0.00
2017-09-12T03:01:18.173Z,0.00
2017-09-12T03:02:13.848Z,0.00
2017-09-12T03:03:08.227Z,0.00
2017-09-12T03:04:03.348Z,0.00
2017-09-12T03:05:03.835Z,0.00
2017-09-12T03:05:52.792Z,0.00
2017-09-12T03:06:41.895Z,0.00
2017-09-12T03:07:35.378Z,0.00
2017-09-12T03:08:30.029Z,0.00
2017-09-12T03:09:17.515Z,0.00
2017-09-12T03:10:11.611Z,0.00
2017-09-12T03:11:11.808Z,0.00
2017-09-12T03:12:05.773Z,0.00
2017-09-12T03:13:00.599Z,0.00
2017-09-12T03:13:54.813Z,0.00
2017-09-12T03:14:49.067Z,0.00
2017-09-12T03:15:43.019Z,0.00
2017-09-12T03:16:49.633Z,0.00
2017-09-12T03:17:38.088Z,0.00
2017-09-12T03:18:39.421Z,0.00
2017-09-12T03:19:27.885Z,0.00
2017-09-12T03:20:22.191Z,0.00
2017-09-12T03:21:17.261Z,0.00
2017-09-12T03:22:06.530Z,0.00
2017-09-12T03:23:06.358Z,0.00
2017-09-12T03:23:55.758Z,0.00
2017-09-12T03:24:55.140Z,0.00
2017-09-12T03:25:49.444Z,0.00
2017-09-12T03:26:49.629Z,0.00
2017-09-12T03:27:43.298Z,0.00
2017-09-12T03:28:43.378Z,0.00
2017-09-12T03:29:43.315Z,0.00
2017-09-12T03:30:44.700Z,0.00
2017-09-12T03:31:38.906Z,0.00
2017-09-12T03:32:39.414Z,0.00
2017-09-12T03:33:40.714Z,0.00
2017-09-12T03:34:35.065Z,0.00
2017-09-12T03:35:29.478Z,0.00
2017-09-12T03:36:24.918Z,0.00
2017-09-12T03:37:24.667Z,0.00
2017-09-12T03:38:18.662Z,0.00
2017-09-12T03:39:13.209Z,0.00
2017-09-12T03:40:12.837Z,0.00
2017-09-12T03:41:07.968Z,0.00
2017-09-12T03:41:56.453Z,0.00
2017-09-12T03:42:56.886Z,0.00
2017-09-12T03:43:56.922Z,0.00
2017-09-12T03:44:51.955Z,0.00
2017-09-12T03:45:46.091Z,0.00
2017-09-12T03:46:40.624Z,0.00
2017-09-12T03:47:35.018Z,0.00
2017-09-12T03:48:35.964Z,0.00
2017-09-12T03:49:30.118Z,0.00
2017-09-12T03:50:24.112Z,0.00
2017-09-12T03:51:19.604Z,0.00
2017-09-12T03:52:13.710Z,0.00
2017-09-12T03:53:07.201Z,0.00
2017-09-12T03:54:01.647Z,0.00
2017-09-12T03:54:50.544Z,0.00
2017-09-12T03:55:44.310Z,0.00
2017-09-12T03:56:40.103Z,0.00
2017-09-12T03:57:33.595Z,0.00
2017-09-12T03:58:33.763Z,0.00
2017-09-12T03:59:27.496Z,0.00
2017-09-12T04:00:21.668Z,0.00
2017-09-12T04:01:16.654Z,0.00
2017-09-12T04:02:05.630Z,0.00
2017-09-12T04:02:59.931Z,0.00
2017-09-12T04:03:48.849Z,0.00
2017-09-12T04:04:37.717Z,0.00
2017-09-12T04:05:26.707Z,0.00
2017-09-12T04:06:27.323Z,0.00
2017-09-12T04:07:15.388Z,0.00
2017-09-12T04:08:08.755Z,0.00
2017-09-12T04:09:02.885Z,0.00
2017-09-12T04:09:57.266Z,0.00
2017-09-12T04:10:46.102Z,0.00
2017-09-12T04:11:34.387Z,0.00
2017-09-12T04:12:28.509Z,0.00
2017-09-12T04:13:17.085Z,0.00
2017-09-12T04:14:12.329Z,0.00
2017-09-12T04:15:01.299Z,0.00
2017-09-12T04:15:56.742Z,0.00
2017-09-12T04:16:56.642Z,0.00
2017-09-12T04:17:50.290Z,0.00
2017-09-12T04:18:44.512Z,0.00
2017-09-12T04:19:38.403Z,0.00
2017-09-12T04:20:32.908Z,0.00
2017-09-12T04:21:26.969Z,0.00
2017-09-12T04:22:26.479Z,0.00
2017-09-12T04:23:21.804Z,0.00
2017-09-12T04:24:22.598Z,0.00
2017-09-12T04:25:11.926Z,0.00
2017-09-12T04:25:59.902Z,0.00
2017-09-12T04:26:54.332Z,0.00
2017-09-12T04:27:54.246Z,0.00
2017-09-12T04:28:47.723Z,0.00
2017-09-12T04:29:42.709Z,0.00
2017-09-12T04:30:32.259Z,0.00
2017-09-12T04:31:26.403Z,0.00
2017-09-12T04:32:20.931Z,0.00
2017-09-12T04:33:14.904Z,0.00
2017-09-12T04:34:08.943Z,0.00
2017-09-12T04:35:09.077Z,0.00
2017-09-12T04:36:08.987Z,0.00
2017-09-12T04:37:03.084Z,0.00
2017-09-12T04:37:57.214Z,0.00
2017-09-12T04:38:52.129Z,0.00
2017-09-12T04:39:41.093Z,0.00
2017-09-12T04:40:35.269Z,0.00
2017-09-12T04:41:35.946Z,0.00
2017-09-12T04:42:30.293Z,0.00
2017-09-12T04:43:30.376Z,0.00
2017-09-12T04:44:24.420Z,0.00
2017-09-12T04:45:25.538Z,0.00
2017-09-12T04:46:21.018Z,0.00
2017-09-12T04:47:14.455Z,0.00
2017-09-12T04:48:03.438Z,0.00
2017-09-12T04:48:57.761Z,0.00
2017-09-12T04:49:45.554Z,0.00
2017-09-12T04:50:40.776Z,0.00
2017-09-12T04:51:35.266Z,0.00
2017-09-12T04:52:24.310Z,0.00
2017-09-12T04:53:18.795Z,0.00
2017-09-12T04:54:06.818Z,0.00
2017-09-12T04:54:55.808Z,0.00
2017-09-12T04:55:50.026Z,0.00
2017-09-12T04:56:44.938Z,0.00
2017-09-12T04:57:38.981Z,0.00
2017-09-12T04:58:33.030Z,0.00
2017-09-12T04:59:27.160Z,0.00
2017-09-12T05:00:22.060Z,0.00
2017-09-12T05:01:10.163Z,0.00
2017-09-12T05:02:05.181Z,0.00
2017-09-12T05:03:05.254Z,0.00
2017-09-12T05:03:59.252Z,0.00
2017-09-12T05:04:53.256Z,0.00
2017-09-12T05:05:48.562Z,0.00
2017-09-12T05:06:43.667Z,0.00
2017-09-12T05:07:31.353Z,0.00
2017-09-12T05:08:25.516Z,0.00
2017-09-12T05:09:13.448Z,0.00
2017-09-12T05:10:08.511Z,0.00
2017-09-12T05:10:57.598Z,0.00
2017-09-12T05:11:57.879Z,0.00
2017-09-12T05:12:51.595Z,0.00
2017-09-12T05:13:46.668Z,0.00
2017-09-12T05:14:35.684Z,0.00
2017-09-12T05:15:30.688Z,0.01
2017-09-12T05:16:31.350Z,0.01
2017-09-12T05:17:31.071Z,0.01
2017-09-12T05:18:26.051Z,0.01
2017-09-12T05:19:19.951Z,0.01
2017-09-12T05:20:15.642Z,0.01
2017-09-12T05:21:03.934Z,0.01
2017-09-12T05:21:59.021Z,0.01
2017-09-12T05:22:53.637Z,0.01
2017-09-12T05:23:42.336Z,0.01
2017-09-12T05:24:37.148Z,0.01
2017-09-12T05:25:32.183Z,0.01
2017-09-12T05:26:20.377Z,0.01
2017-09-12T05:27:21.207Z,0.01
2017-09-12T05:28:21.634Z,0.01
2017-09-12T05:29:16.308Z,0.01
2017-09-12T05:30:16.414Z,0.01
2017-09-12T05:31:10.368Z,0.01
2017-09-12T05:32:04.340Z,0.02
2017-09-12T05:32:58.401Z,0.02
2017-09-12T05:33:52.787Z,0.02
2017-09-12T05:34:52.496Z,0.02
2017-09-12T05:35:46.778Z,0.02
2017-09-12T05:36:47.589Z,0.02
2017-09-12T05:37:41.736Z,0.03
2017-09-12T05:38:30.958Z,0.03
2017-09-12T05:39:18.806Z,0.02
2017-09-12T05:40:14.473Z,0.02
2017-09-12T05:41:07.827Z,0.02
2017-09-12T05:42:01.941Z,0.02
2017-09-12T05:42:49.887Z,0.02
2017-09-12T05:43:38.118Z,0.03
2017-09-12T05:44:37.926Z,0.03
2017-09-12T05:45:32.487Z,0.03
2017-09-12T05:46:32.644Z,0.04
2017-09-12T05:47:21.159Z,0.04
2017-09-12T05:48:09.057Z,0.04
2017-09-12T05:49:04.189Z,0.04
2017-09-12T05:50:05.205Z,0.04
2017-09-12T05:51:05.230Z,0.05
2017-09-12T05:51:54.331Z,0.05
2017-09-12T05:52:55.336Z,0.04
2017-09-12T05:53:56.969Z,0.04
2017-09-12T05:54:44.386Z,0.03
2017-09-12T05:55:39.593Z,0.03
2017-09-12T05:56:35.149Z,0.03
2017-09-12T05:57:34.862Z,0.04
2017-09-12T05:58:29.539Z,0.03
2017-09-12T05:59:23.589Z,0.03
2017-09-12T06:00:11.677Z,0.04
2017-09-12T06:01:06.688Z,0.04
2017-09-12T06:02:00.619Z,0.04
2017-09-12T06:02:50.101Z,0.04
2017-09-12T06:03:55.838Z,0.05
2017-09-12T06:04:49.764Z,0.06
2017-09-12T06:05:44.096Z,0.07
2017-09-12T06:06:38.417Z,0.07
2017-09-12T06:07:38.081Z,0.07
2017-09-12T06:08:32.130Z,0.08
2017-09-12T06:09:27.080Z,0.09
2017-09-12T06:10:27.079Z,0.09
2017-09-12T06:11:21.119Z,0.09
2017-09-12T06:12:21.114Z,0.10
2017-09-12T06:13:16.078Z,0.11
2017-09-12T06:14:16.716Z,0.10
2017-09-12T06:15:11.614Z,0.10
2017-09-12T06:16:05.253Z,0.08
2017-09-12T06:17:05.336Z,0.09
2017-09-12T06:17:59.304Z,0.10
2017-09-12T06:18:59.364Z,0.11
2017-09-12T06:19:54.381Z,0.10
2017-09-12T06:20:49.984Z,0.12
2017-09-12T06:21:43.445Z,0.09
2017-09-12T06:22:37.581Z,0.09
2017-09-12T06:23:25.642Z,0.09
2017-09-12T06:24:19.548Z,0.09
2017-09-12T06:25:07.719Z,0.09
2017-09-12T06:26:02.767Z,0.08
2017-09-12T06:27:03.841Z,0.07
2017-09-12T06:28:04.789Z,0.06
2017-09-12T06:28:58.947Z,0.06
2017-09-12T06:29:47.832Z,0.06
2017-09-12T06:30:41.893Z,0.05
2017-09-12T06:31:37.484Z,0.05
2017-09-12T06:32:31.318Z,0.05
2017-09-12T06:33:25.426Z,0.06
2017-09-12T06:34:20.087Z,0.05
2017-09-12T06:35:17.613Z,0.04
2017-09-12T06:36:09.019Z,0.04
2017-09-12T06:37:02.221Z,0.04
2017-09-12T06:37:56.289Z,0.04
2017-09-12T06:38:50.287Z,0.04
2017-09-12T06:39:45.698Z,0.04
2017-09-12T06:40:46.372Z,0.05
2017-09-12T06:41:46.250Z,0.06
2017-09-12T06:42:40.322Z,0.07
2017-09-12T06:43:40.370Z,0.07
2017-09-12T06:44:34.411Z,0.07
2017-09-12T06:45:35.664Z,0.07
2017-09-12T06:46:29.961Z,0.06
2017-09-12T06:47:17.746Z,0.08
2017-09-12T06:48:13.373Z,0.09
2017-09-12T06:49:12.754Z,0.09
2017-09-12T06:50:07.098Z,0.07
2017-09-12T06:51:06.763Z,0.09
2017-09-12T06:51:55.797Z,0.10
2017-09-12T06:52:51.143Z,0.12
2017-09-12T06:53:50.876Z,0.13
2017-09-12T06:54:38.940Z,0.14
2017-09-12T06:55:38.995Z,0.10
2017-09-12T06:56:33.662Z,0.09
2017-09-12T06:57:27.046Z,0.10
2017-09-12T06:58:22.646Z,0.09
2017-09-12T06:59:16.119Z,0.10
2017-09-12T07:00:10.080Z,0.09
2017-09-12T07:00:59.291Z,0.11
2017-09-12T07:01:53.167Z,0.15
2017-09-12T07:02:42.330Z,0.16
2017-09-12T07:03:30.281Z,0.14
2017-09-12T07:04:25.421Z,0.14
2017-09-12T07:05:20.418Z,0.15
2017-09-12T07:06:14.485Z,0.16
2017-09-12T07:07:09.081Z,0.13
2017-09-12T07:07:57.510Z,0.11
2017-09-12T07:08:46.526Z,0.12
2017-09-12T07:09:40.586Z,0.11
2017-09-12T07:10:40.739Z,0.09
2017-09-12T07:11:29.802Z,0.11
2017-09-12T07:12:24.618Z,0.12
2017-09-12T07:13:19.822Z,0.13
2017-09-12T07:14:19.845Z,0.11
2017-09-12T07:15:14.070Z,0.12
2017-09-12T07:16:08.902Z,0.11
2017-09-12T07:17:03.039Z,0.13
2017-09-12T07:17:52.090Z,0.12
2017-09-12T07:18:53.106Z,0.11
2017-09-12T07:19:41.473Z,0.13
2017-09-12T07:20:35.407Z,0.10
2017-09-12T07:21:29.122Z,0.11
2017-09-12T07:22:18.358Z,0.11
2017-09-12T07:23:12.612Z,0.15
2017-09-12T07:24:12.859Z,0.07
2017-09-12T07:25:01.285Z,0.08
2017-09-12T07:25:55.308Z,0.12
2017-09-12T07:26:50.383Z,0.13
2017-09-12T07:27:45.555Z,0.11
2017-09-12T07:28:46.968Z,0.14
2017-09-12T07:29:36.097Z,0.17
2017-09-12T07:30:29.662Z,0.17
2017-09-12T07:31:18.605Z,0.17
2017-09-12T07:32:19.760Z,0.20
2017-09-12T07:33:07.827Z,0.22
2017-09-12T07:34:03.348Z,0.20
2017-09-12T07:34:56.874Z,0.18
2017-09-12T07:35:46.055Z,0.25
2017-09-12T07:36:45.842Z,0.16
2017-09-12T07:37:45.869Z,0.14
2017-09-12T07:38:35.314Z,0.16
2017-09-12T07:39:29.257Z,0.18
2017-09-12T07:40:29.373Z,0.14
2017-09-12T07:41:29.473Z,0.16
2017-09-12T07:42:23.089Z,0.14
2017-09-12T07:43:17.125Z,0.16
2017-09-12T07:44:11.791Z,0.16
2017-09-12T07:45:05.616Z,0.15
2017-09-12T07:45:59.693Z,0.19
2017-09-12T07:47:00.464Z,0.18
2017-09-12T07:47:54.314Z,0.17
2017-09-12T07:48:42.860Z,0.17
2017-09-12T07:49:37.596Z,0.16
2017-09-12T07:50:37.488Z,0.11
2017-09-12T07:51:32.132Z,0.09
2017-09-12T07:52:27.082Z,0.11
2017-09-12T07:53:27.048Z,0.12
2017-09-12T07:54:21.142Z,0.16
2017-09-12T07:55:16.256Z,0.16
2017-09-12T07:56:11.290Z,0.16
2017-09-12T07:57:00.292Z,0.17
2017-09-12T07:57:48.380Z,0.18
2017-09-12T07:58:37.319Z,0.19
2017-09-12T07:59:36.851Z,0.18
2017-09-12T08:00:25.234Z,0.18
2017-09-12T08:01:19.433Z,0.22
2017-09-12T08:02:13.229Z,0.33
2017-09-12T08:03:02.089Z,0.23
2017-09-12T08:03:56.699Z,0.24
2017-09-12T08:04:50.734Z,0.22
2017-09-12T08:05:50.179Z,0.20
2017-09-12T08:06:44.543Z,0.31
2017-09-12T08:07:44.478Z,0.20
2017-09-12T08:08:39.832Z,0.43
2017-09-12T08:09:33.591Z,0.23
2017-09-12T08:10:22.452Z,0.26
2017-09-12T08:11:17.445Z,0.58
2017-09-12T08:12:12.956Z,0.32
2017-09-12T08:13:13.057Z,0.65
2017-09-12T08:14:07.667Z,0.29
2017-09-12T08:15:07.664Z,0.27
2017-09-12T08:16:02.161Z,0.27
2017-09-12T08:17:01.849Z,0.47
2017-09-12T08:17:55.937Z,0.25
2017-09-12T08:18:55.835Z,0.26
2017-09-12T08:19:56.196Z,0.25
2017-09-12T08:20:49.974Z,0.42
2017-09-12T08:21:45.033Z,0.58
2017-09-12T08:22:39.443Z,0.61
2017-09-12T08:23:34.716Z,0.23
2017-09-12T08:24:28.085Z,0.23
2017-09-12T08:25:22.162Z,0.24
2017-09-12T08:26:17.676Z,0.22
2017-09-12T08:27:17.677Z,0.20
2017-09-12T08:28:12.733Z,0.23
2017-09-12T08:29:07.578Z,0.22
2017-09-12T08:30:00.923Z,0.20
2017-09-12T08:30:54.473Z,0.23
2017-09-12T08:31:49.111Z,0.20
2017-09-12T08:32:42.554Z,0.21
2017-09-12T08:33:32.159Z,0.60
2017-09-12T08:34:26.767Z,0.36
2017-09-12T08:35:22.102Z,0.21
2017-09-12T08:36:11.414Z,0.24
2017-09-12T08:37:06.122Z,0.24
2017-09-12T08:38:00.317Z,0.27
2017-09-12T08:38:55.464Z,0.53
2017-09-12T08:39:49.467Z,0.24
2017-09-12T08:40:43.426Z,0.33
2017-09-12T08:41:32.585Z,0.35
2017-09-12T08:42:27.570Z,0.68
2017-09-12T08:43:22.749Z,0.29
2017-09-12T08:44:11.697Z,0.45
2017-09-12T08:45:06.704Z,0.30
2017-09-12T08:45:55.829Z,0.55
2017-09-12T08:46:49.809Z,0.70
2017-09-12T08:47:44.887Z,0.38
2017-09-12T08:48:38.959Z,0.36
2017-09-12T08:49:32.954Z,0.70
2017-09-12T08:50:27.968Z,0.37
2017-09-12T08:51:28.049Z,0.71
2017-09-12T08:52:22.086Z,0.69
2017-09-12T08:53:16.201Z,0.70
2017-09-12T08:54:04.264Z,0.67
2017-09-12T08:54:59.286Z,0.65
2017-09-12T08:55:54.379Z,0.66
2017-09-12T08:56:43.385Z,0.67
2017-09-12T08:57:37.514Z,0.73
2017-09-12T08:58:37.389Z,0.77
2017-09-12T08:59:37.614Z,0.29
2017-09-12T09:00:31.597Z,0.23
2017-09-12T09:01:20.636Z,0.25
2017-09-12T09:02:14.692Z,0.25
2017-09-12T09:03:09.748Z,0.43
2017-09-12T09:03:57.842Z,0.21
2017-09-12T09:04:46.883Z,0.63
2017-09-12T09:05:47.868Z,0.65
2017-09-12T09:06:42.892Z,0.72
2017-09-12T09:07:37.028Z,0.32
2017-09-12T09:08:37.041Z,0.36
2017-09-12T09:09:31.102Z,0.33
2017-09-12T09:10:31.212Z,0.79
2017-09-12T09:11:26.269Z,0.65
2017-09-12T09:12:20.695Z,0.51
2017-09-12T09:13:20.349Z,0.50
2017-09-12T09:14:15.412Z,0.32
2017-09-12T09:15:03.503Z,0.32
2017-09-12T09:15:58.462Z,0.30
2017-09-12T09:16:53.545Z,0.70
2017-09-12T09:17:47.903Z,0.33
2017-09-12T09:18:41.614Z,0.77
2017-09-12T09:19:36.683Z,0.72
2017-09-12T09:20:31.801Z,0.75
2017-09-12T09:21:19.796Z,0.52
2017-09-12T09:22:14.978Z,0.37
2017-09-12T09:23:15.971Z,0.74
2017-09-12T09:24:16.010Z,0.32
2017-09-12T09:25:10.167Z,0.81
2017-09-12T09:26:04.121Z,0.27
2017-09-12T09:26:58.172Z,0.25
2017-09-12T09:27:52.161Z,0.75
2017-09-12T09:28:41.301Z,0.34
2017-09-12T09:29:35.263Z,0.17
2017-09-12T09:30:30.514Z,0.16
2017-09-12T09:31:25.385Z,0.21
2017-09-12T09:32:19.601Z,0.70
2017-09-12T09:33:14.388Z,0.34
2017-09-12T09:34:08.733Z,0.37
2017-09-12T09:34:57.558Z,0.27
2017-09-12T09:35:52.905Z,0.24
2017-09-12T09:36:46.721Z,0.24
2017-09-12T09:37:35.811Z,0.74
2017-09-12T09:38:31.038Z,0.72
2017-09-12T09:39:20.053Z,0.70
2017-09-12T09:40:14.006Z,0.23
2017-09-12T09:41:08.048Z,0.20
2017-09-12T09:42:02.042Z,0.19
2017-09-12T09:42:50.100Z,0.17
2017-09-12T09:43:45.281Z,0.15
2017-09-12T09:44:39.425Z,0.13
2017-09-12T09:45:39.242Z,0.14
2017-09-12T09:46:34.387Z,0.15
2017-09-12T09:47:34.070Z,0.20
2017-09-12T09:48:34.316Z,0.41
2017-09-12T09:49:22.926Z,0.37
2017-09-12T09:50:23.396Z,0.56
2017-09-12T09:51:12.369Z,0.37
2017-09-12T09:52:12.431Z,0.34
2017-09-12T09:53:07.420Z,0.29
2017-09-12T09:53:56.303Z,0.28
2017-09-12T09:54:50.579Z,0.34
2017-09-12T09:55:39.581Z,0.28
2017-09-12T09:56:33.614Z,0.30
2017-09-12T09:57:33.481Z,0.60
2017-09-12T09:58:27.889Z,0.41
2017-09-12T09:59:21.904Z,0.40
2017-09-12T10:00:22.116Z,0.92
2017-09-12T10:01:11.140Z,0.40
2017-09-12T10:02:05.188Z,0.36
2017-09-12T10:03:05.258Z,0.51
2017-09-12T10:04:05.384Z,0.85
2017-09-12T10:04:59.266Z,0.89
2017-09-12T10:05:53.413Z,0.26
2017-09-12T10:06:47.556Z,0.18
2017-09-12T10:07:35.426Z,0.13
2017-09-12T10:08:35.604Z,0.10
2017-09-12T10:09:29.617Z,0.11
2017-09-12T10:10:30.116Z,0.20
2017-09-12T10:11:24.603Z,0.45
2017-09-12T10:12:19.603Z,0.76
2017-09-12T10:13:08.644Z,0.76
2017-09-12T10:14:02.487Z,0.76
2017-09-12T10:14:51.691Z,0.78
2017-09-12T10:15:45.905Z,0.65
2017-09-12T10:16:34.996Z,0.78
2017-09-12T10:17:30.014Z,0.28
2017-09-12T10:18:25.239Z,0.34
2017-09-12T10:19:25.258Z,0.25
2017-09-12T10:20:20.202Z,0.29
2017-09-12T10:21:14.256Z,0.22
2017-09-12T10:22:14.326Z,0.24
2017-09-12T10:23:08.567Z,0.27
2017-09-12T10:24:08.438Z,0.80
2017-09-12T10:25:03.562Z,0.60
2017-09-12T10:25:52.537Z,0.72
2017-09-12T10:26:46.523Z,0.73
2017-09-12T10:27:41.658Z,0.73
2017-09-12T10:28:36.985Z,0.72
2017-09-12T10:29:25.812Z,0.72
2017-09-12T10:30:20.778Z,0.72
2017-09-12T10:31:14.892Z,0.72
2017-09-12T10:32:02.616Z,0.62
2017-09-12T10:32:51.875Z,0.26
2017-09-12T10:33:46.959Z,0.23
2017-09-12T10:34:41.093Z,0.75
2017-09-12T10:35:35.108Z,0.74
2017-09-12T10:36:29.249Z,0.20
2017-09-12T10:37:24.065Z,0.74
2017-09-12T10:38:18.187Z,0.47
2017-09-12T10:39:07.588Z,0.31
2017-09-12T10:40:01.292Z,0.33
2017-09-12T10:40:50.075Z,0.25
2017-09-12T10:41:44.028Z,0.26
2017-09-12T10:42:33.508Z,0.30
2017-09-12T10:43:33.397Z,0.25
2017-09-12T10:44:28.306Z,0.23
2017-09-12T10:45:17.712Z,0.20
2017-09-12T10:46:12.440Z,0.19
2017-09-12T10:47:06.706Z,0.21
2017-09-12T10:48:01.206Z,0.26
2017-09-12T10:48:55.242Z,0.21
2017-09-12T10:49:45.016Z,0.18
2017-09-12T10:50:38.943Z,0.18
2017-09-12T10:51:33.555Z,0.35
2017-09-12T10:52:28.731Z,0.75
2017-09-12T10:53:24.031Z,0.73
2017-09-12T10:54:17.864Z,0.75
2017-09-12T10:55:19.309Z,0.76
2017-09-12T10:56:18.985Z,0.29
2017-09-12T10:57:13.607Z,0.19
2017-09-12T10:58:07.963Z,0.18
2017-09-12T10:59:07.912Z,0.18
2017-09-12T11:00:03.192Z,0.18
2017-09-12T11:00:58.303Z,0.19
2017-09-12T11:01:52.515Z,0.21
2017-09-12T11:02:40.290Z,0.26
2017-09-12T11:03:29.127Z,0.36
2017-09-12T11:04:24.559Z,0.74
2017-09-12T11:05:24.644Z,0.40
2017-09-12T11:06:19.656Z,0.22
2017-09-12T11:07:13.885Z,0.16
2017-09-12T11:08:14.216Z,0.13
2017-09-12T11:09:02.844Z,0.13
2017-09-12T11:09:57.079Z,0.14
2017-09-12T11:10:51.659Z,0.16
2017-09-12T11:11:46.117Z,0.18
2017-09-12T11:12:40.652Z,0.72
2017-09-12T11:13:34.755Z,0.35
2017-09-12T11:14:29.689Z,0.74
2017-09-12T11:15:18.843Z,0.71
2017-09-12T11:16:08.362Z,0.70
2017-09-12T11:17:02.557Z,0.16
2017-09-12T11:18:02.473Z,0.69
2017-09-12T11:18:56.422Z,0.69
2017-09-12T11:19:56.761Z,0.70
2017-09-12T11:20:44.647Z,0.15
2017-09-12T11:21:38.810Z,0.70
2017-09-12T11:22:32.942Z,0.70
2017-09-12T11:23:26.862Z,0.69
2017-09-12T11:24:20.933Z,0.15
2017-09-12T11:25:14.843Z,0.68
2017-09-12T11:26:03.998Z,0.68
2017-09-12T11:26:51.955Z,0.67
2017-09-12T11:27:47.177Z,0.67
2017-09-12T11:28:41.194Z,0.67
2017-09-12T11:29:30.164Z,0.16
2017-09-12T11:30:19.216Z,0.16
2017-09-12T11:31:13.393Z,0.16
2017-09-12T11:32:07.312Z,0.33
2017-09-12T11:32:56.454Z,0.70
2017-09-12T11:33:44.469Z,0.34
2017-09-12T11:34:44.590Z,0.22
2017-09-12T11:35:38.599Z,0.24
2017-09-12T11:36:38.807Z,0.55
2017-09-12T11:37:32.754Z,0.23
2017-09-12T11:38:26.699Z,0.20
2017-09-12T11:39:20.737Z,0.19
2017-09-12T11:40:14.992Z,0.16
2017-09-12T11:41:03.918Z,0.73
2017-09-12T11:41:57.923Z,0.71
2017-09-12T11:42:52.148Z,0.71
2017-09-12T11:43:46.234Z,0.21
2017-09-12T11:44:46.194Z,0.37
2017-09-12T11:45:35.097Z,0.73
2017-09-12T11:46:30.084Z,0.68
2017-09-12T11:47:24.266Z,0.29
2017-09-12T11:48:13.281Z,0.76
2017-09-12T11:49:07.341Z,0.31
2017-09-12T11:50:02.283Z,0.32
2017-09-12T11:50:57.529Z,0.78
2017-09-12T11:51:45.458Z,0.76
2017-09-12T11:52:34.636Z,0.75
2017-09-12T11:53:34.681Z,0.74
2017-09-12T11:54:23.804Z,0.75
2017-09-12T11:55:17.695Z,0.76
2017-09-12T11:56:12.810Z,0.26
2017-09-12T11:57:06.883Z,0.25
2017-09-12T11:58:00.914Z,0.26
2017-09-12T11:58:48.980Z,0.27
2017-09-12T11:59:38.236Z,0.26
2017-09-12T12:00:33.148Z,0.29
2017-09-12T12:01:27.137Z,0.51
2017-09-12T12:02:22.063Z,0.48
2017-09-12T12:03:16.291Z,0.40
2017-09-12T12:04:10.105Z,0.38
2017-09-12T12:05:04.978Z,0.38